createdAt,value
2024-05-09T00:00:40.324Z,4.10
2024-05-09T00:03:09.940Z,4.05
2024-05-09T00:05:38.520Z,4.15
2024-05-09T00:08:06.625Z,4.07
2024-05-09T00:10:37.434Z,4.30
2024-05-09T00:13:10.743Z,4.05
2024-05-09T00:15:38.317Z,4.03
2024-05-09T00:18:07.585Z,4.25
2024-05-09T00:20:39.340Z,4.35
2024-05-09T00:23:12.078Z,4.70
2024-05-09T00:25:40.158Z,4.10
2024-05-09T00:28:07.250Z,3.80
2024-05-09T00:30:36.604Z,3.90
2024-05-09T00:33:09.864Z,3.93
2024-05-09T00:35:38.393Z,4.30
2024-05-09T00:38:05.931Z,3.97
2024-05-09T00:40:40.379Z,4.00
2024-05-09T00:43:10.521Z,4.55
2024-05-09T00:45:37.786Z,4.43
2024-05-09T00:48:07.983Z,4.68
2024-05-09T00:50:40.788Z,4.95
2024-05-09T00:53:11.004Z,4.85
2024-05-09T00:55:39.182Z,4.80
2024-05-09T00:58:09.274Z,5.00
2024-05-09T01:00:39.963Z,4.95
2024-05-09T01:03:10.964Z,4.72
2024-05-09T01:05:40.350Z,4.72
2024-05-09T01:08:08.900Z,5.00
2024-05-09T01:10:40.791Z,4.50
2024-05-09T01:13:10.077Z,4.20
2024-05-09T01:15:37.094Z,3.78
2024-05-09T01:18:10.041Z,4.20
2024-05-09T01:20:42.142Z,4.20
2024-05-09T01:23:12.696Z,4.18
2024-05-09T01:25:40.891Z,4.50
2024-05-09T01:28:08.053Z,4.00
2024-05-09T01:30:37.258Z,4.38
2024-05-09T01:33:10.166Z,4.22
2024-05-09T01:35:41.715Z,4.45
2024-05-09T01:40:40.398Z,4.20
2024-05-09T01:43:09.569Z,3.92
2024-05-09T01:45:38.093Z,3.88
2024-05-09T01:48:06.001Z,3.75
2024-05-09T01:50:38.246Z,3.40
2024-05-09T01:53:10.106Z,3.30
2024-05-09T01:55:37.503Z,3.00
2024-05-09T01:58:04.795Z,3.33
2024-05-09T02:00:38.991Z,3.30
2024-05-09T02:03:13.653Z,3.13
2024-05-09T02:05:44.562Z,3.80
2024-05-09T02:08:17.336Z,3.60
2024-05-09T02:10:45.549Z,3.58
2024-05-09T02:13:13.779Z,3.65
2024-05-09T02:15:40.960Z,3.97
2024-05-09T02:18:09.023Z,3.90
2024-05-09T02:20:39.801Z,3.88
2024-05-09T02:23:08.464Z,3.55
2024-05-09T02:25:35.769Z,3.45
2024-05-09T02:28:03.177Z,3.40
2024-05-09T02:30:38.758Z,3.60
2024-05-09T02:33:11.423Z,3.85
2024-05-09T02:35:40.875Z,4.03
2024-05-09T02:38:09.874Z,3.85
2024-05-09T02:40:39.133Z,3.80
2024-05-09T02:43:08.859Z,3.72
2024-05-09T02:45:37.221Z,3.23
2024-05-09T02:48:04.801Z,3.90
2024-05-09T02:50:37.900Z,3.55
2024-05-09T02:53:11.077Z,3.67
2024-05-09T02:55:38.838Z,3.92
2024-05-09T02:58:08.771Z,3.70
2024-05-09T03:00:39.795Z,3.70
2024-05-09T03:03:11.820Z,3.45
2024-05-09T03:05:41.473Z,3.75
2024-05-09T03:08:09.062Z,3.95
2024-05-09T03:10:38.499Z,4.07
2024-05-09T03:13:07.892Z,3.65
2024-05-09T03:15:35.084Z,3.47
2024-05-09T03:18:02.564Z,3.50
2024-05-09T03:20:34.233Z,3.70
2024-05-09T03:23:03.606Z,3.60
2024-05-09T03:25:31.114Z,3.30
2024-05-09T03:27:58.152Z,3.70
2024-05-09T03:30:38.568Z,3.83
2024-05-09T03:33:19.121Z,3.80
2024-05-09T03:35:48.150Z,3.47
2024-05-09T03:38:15.703Z,3.67
2024-05-09T03:40:48.005Z,3.30
2024-05-09T03:43:16.099Z,3.85
2024-05-09T03:45:43.605Z,3.15
2024-05-09T03:48:11.273Z,3.47
2024-05-09T03:50:38.641Z,3.30
2024-05-09T03:53:06.489Z,3.70
2024-05-09T03:55:33.589Z,3.28
2024-05-09T03:58:00.734Z,3.35
2024-05-09T04:00:35.619Z,3.38
2024-05-09T04:03:09.053Z,3.33
2024-05-09T04:05:40.896Z,3.75
2024-05-09T04:08:09.663Z,3.63
2024-05-09T04:10:36.932Z,3.70
2024-05-09T04:13:04.476Z,3.78
2024-05-09T04:15:31.939Z,3.30
2024-05-09T04:17:59.815Z,3.75
2024-05-09T04:22:57.084Z,3.88
2024-05-09T04:25:24.180Z,3.60
2024-05-09T04:27:55.858Z,4.10
2024-05-09T04:30:34.259Z,3.60
2024-05-09T04:33:06.659Z,3.50
2024-05-09T04:35:34.645Z,4.13
2024-05-09T04:38:01.876Z,3.53
2024-05-09T04:40:34.619Z,3.90
2024-05-09T04:43:04.627Z,3.50
2024-05-09T04:45:31.678Z,3.85
2024-05-09T04:47:58.988Z,4.18
2024-05-09T04:50:35.427Z,3.78
2024-05-09T04:53:06.584Z,3.70
2024-05-09T04:55:34.246Z,4.05
2024-05-09T04:58:01.895Z,4.15
2024-05-09T05:00:35.823Z,3.83
2024-05-09T05:03:10.511Z,3.90
2024-05-09T05:05:44.002Z,4.15
2024-05-09T05:08:16.598Z,4.43
2024-05-09T05:10:44.734Z,4.80
2024-05-09T05:13:24.042Z,4.05
2024-05-09T05:15:58.503Z,3.97
2024-05-09T05:18:27.400Z,4.55
2024-05-09T05:21:00.956Z,4.68
2024-05-09T05:23:28.202Z,3.95
2024-05-09T05:25:55.824Z,4.38
2024-05-09T05:28:23.346Z,4.47
2024-05-09T05:30:50.624Z,4.15
2024-05-09T05:33:19.266Z,4.90
2024-05-09T05:35:46.876Z,4.68
2024-05-09T05:38:14.438Z,4.25
2024-05-09T05:40:41.712Z,4.50
2024-05-09T05:43:15.850Z,4.25
2024-05-09T05:45:42.940Z,4.07
2024-05-09T05:48:10.298Z,4.57
2024-05-09T05:50:38.589Z,4.90
2024-05-09T05:53:08.105Z,5.00
2024-05-09T05:55:36.852Z,5.18
2024-05-09T05:58:04.228Z,4.90
2024-05-09T06:00:38.223Z,5.10
2024-05-09T06:03:08.010Z,4.93
2024-05-09T06:05:37.325Z,4.80
2024-05-09T06:08:05.016Z,4.85
2024-05-09T06:10:38.114Z,5.10
2024-05-09T06:13:08.964Z,5.22
2024-05-09T06:15:36.035Z,4.95
2024-05-09T06:18:06.492Z,4.78
2024-05-09T06:20:36.607Z,4.85
2024-05-09T06:23:09.711Z,5.28
2024-05-09T06:25:37.686Z,5.55
2024-05-09T06:28:05.193Z,5.40
2024-05-09T06:30:42.119Z,5.57
2024-05-09T06:33:13.475Z,5.60
2024-05-09T06:35:42.747Z,5.95
2024-05-09T06:38:11.783Z,5.60
2024-05-09T06:40:42.944Z,5.93
2024-05-09T06:43:12.227Z,5.95
2024-05-09T06:45:42.193Z,7.00
2024-05-09T06:48:10.144Z,6.80
2024-05-09T06:50:39.327Z,6.38
2024-05-09T06:53:08.460Z,6.13
2024-05-09T06:55:36.963Z,6.72
2024-05-09T06:58:06.550Z,6.78
2024-05-09T07:00:39.103Z,6.18
2024-05-09T07:03:09.959Z,6.60
2024-05-09T07:05:38.016Z,6.28
2024-05-09T07:08:06.210Z,7.03
2024-05-09T07:10:35.655Z,6.63
2024-05-09T07:13:03.573Z,6.97
2024-05-09T07:15:31.022Z,6.32
2024-05-09T07:17:59.203Z,5.88
2024-05-09T07:20:33.847Z,5.80
2024-05-09T07:23:03.343Z,4.97
2024-05-09T07:25:30.681Z,4.78
2024-05-09T07:27:58.052Z,5.00
2024-05-09T07:30:32.685Z,5.50
2024-05-09T07:33:02.569Z,5.20
2024-05-09T07:35:30.941Z,4.88
2024-05-09T07:37:58.568Z,5.00
2024-05-09T07:40:33.114Z,4.70
2024-05-09T07:43:08.090Z,3.67
2024-05-09T07:45:48.493Z,3.78
2024-05-09T07:53:38.984Z,3.65
2024-05-09T07:56:09.940Z,3.95
2024-05-09T07:58:37.799Z,3.67
2024-05-09T08:01:05.477Z,3.78
2024-05-09T08:03:32.865Z,3.88
2024-05-09T08:06:00.273Z,3.50
2024-05-09T08:08:27.483Z,3.83
2024-05-09T08:10:54.566Z,3.90
2024-05-09T08:13:21.908Z,4.15
2024-05-09T08:15:49.339Z,4.03
2024-05-09T08:18:16.673Z,4.13
2024-05-09T08:20:43.759Z,3.47
2024-05-09T08:23:11.538Z,3.47
2024-05-09T08:25:38.938Z,3.42
2024-05-09T08:28:06.375Z,3.35
2024-05-09T08:30:37.138Z,3.60
2024-05-09T08:33:06.686Z,3.55
2024-05-09T08:35:34.972Z,3.40
2024-05-09T08:38:06.975Z,3.35
2024-05-09T08:40:37.378Z,3.65
2024-05-09T08:45:44.183Z,3.45
2024-05-09T08:48:14.794Z,4.25
2024-05-09T08:50:43.282Z,3.05
2024-05-09T08:53:10.630Z,3.40
2024-05-09T08:55:41.579Z,3.50
2024-05-09T08:58:15.578Z,3.53
2024-05-09T09:00:44.729Z,3.80
2024-05-09T09:03:15.842Z,3.58
2024-05-09T09:05:59.243Z,3.88
2024-05-09T09:08:26.561Z,3.33
2024-05-09T09:10:57.646Z,3.40
2024-05-09T09:15:52.169Z,3.33
2024-05-09T09:18:19.503Z,3.20
2024-05-09T09:20:46.884Z,3.28
2024-05-09T09:23:14.050Z,3.00
2024-05-09T09:25:41.216Z,3.60
2024-05-09T09:28:09.171Z,3.47
2024-05-09T09:30:43.125Z,3.40
2024-05-09T09:33:10.821Z,3.08
2024-05-09T09:35:40.411Z,3.72
2024-05-09T09:38:10.706Z,3.22
2024-05-09T09:40:45.128Z,3.67
2024-05-09T09:43:20.199Z,3.20
2024-05-09T09:45:50.111Z,3.67
2024-05-09T09:48:17.500Z,3.92
2024-05-09T09:50:45.491Z,3.30
2024-05-09T09:53:13.824Z,3.67
2024-05-09T09:55:41.866Z,3.55
2024-05-09T09:58:13.527Z,3.55
2024-05-09T10:00:42.142Z,4.25
2024-05-09T10:03:09.713Z,3.90
2024-05-09T10:05:37.949Z,4.30
2024-05-09T10:08:08.205Z,4.10
2024-05-09T10:10:36.509Z,4.00
2024-05-09T10:13:08.341Z,4.10
2024-05-09T10:15:46.126Z,4.60
2024-05-09T10:18:13.992Z,4.20
2024-05-09T10:20:45.339Z,4.18
2024-05-09T10:23:33.501Z,4.15
2024-05-09T10:26:01.452Z,3.90
2024-05-09T10:28:29.827Z,4.05
2024-05-09T10:31:07.038Z,4.32
2024-05-09T10:33:41.875Z,3.88
2024-05-09T10:36:19.059Z,4.00
2024-05-09T10:38:46.252Z,3.80
2024-05-09T10:41:13.399Z,3.80
2024-05-09T10:43:41.837Z,4.15
2024-05-09T10:46:10.229Z,3.92
2024-05-09T10:48:38.316Z,4.75
2024-05-09T10:51:05.788Z,4.38
2024-05-09T10:53:39.752Z,4.38
2024-05-09T10:56:07.051Z,4.75
2024-05-09T10:58:34.095Z,4.10
2024-05-09T11:01:05.423Z,4.20
2024-05-09T11:03:34.559Z,4.30
2024-05-09T11:06:02.199Z,4.60
2024-05-09T11:08:31.184Z,3.92
2024-05-09T11:11:04.813Z,4.65
2024-05-09T11:13:36.499Z,4.10
2024-05-09T11:16:05.083Z,3.70
2024-05-09T11:18:36.615Z,3.88
2024-05-09T11:21:13.187Z,3.47
2024-05-09T11:23:41.074Z,3.65
2024-05-09T11:26:09.205Z,3.85
2024-05-09T11:28:36.329Z,4.18
2024-05-09T11:31:08.748Z,3.60
2024-05-09T11:33:38.580Z,3.90
2024-05-09T11:36:06.835Z,3.65
2024-05-09T11:38:34.038Z,3.63
2024-05-09T11:43:32.503Z,3.60
2024-05-09T11:45:59.912Z,3.67
2024-05-09T11:48:27.521Z,3.65
2024-05-09T11:50:57.111Z,3.80
2024-05-09T11:53:24.347Z,3.40
2024-05-09T11:55:51.392Z,3.75
2024-05-09T11:58:19.248Z,3.72
2024-05-09T12:00:47.333Z,3.45
2024-05-09T12:03:14.862Z,2.92
2024-05-09T12:05:42.429Z,3.80
2024-05-09T12:08:10.119Z,4.15
2024-05-09T12:10:37.560Z,3.65
2024-05-09T12:13:06.692Z,4.18
2024-05-09T12:15:37.837Z,3.80
2024-05-09T12:20:37.689Z,4.25
2024-05-09T12:23:09.336Z,4.30
2024-05-09T12:25:38.081Z,3.83
2024-05-09T12:28:05.904Z,3.88
2024-05-09T12:30:37.841Z,3.90
2024-05-09T12:33:12.474Z,4.00
2024-05-09T12:35:41.084Z,3.58
2024-05-09T12:38:09.394Z,3.75
2024-05-09T12:40:38.669Z,3.83
2024-05-09T12:43:08.490Z,3.63
2024-05-09T12:45:37.044Z,3.53
2024-05-09T12:48:07.529Z,4.22
2024-05-09T12:50:35.383Z,3.95
2024-05-09T12:53:03.802Z,3.80
2024-05-09T12:55:40.250Z,3.80
2024-05-09T12:58:18.070Z,3.35
2024-05-09T13:00:46.205Z,3.63
2024-05-09T13:03:13.951Z,3.55
2024-05-09T13:05:41.851Z,3.38
2024-05-09T13:08:09.400Z,3.30
2024-05-09T13:10:37.085Z,3.50
2024-05-09T13:13:04.822Z,3.70
2024-05-09T13:15:35.060Z,3.25
2024-05-09T13:18:03.578Z,3.50
2024-05-09T13:20:34.450Z,3.65
2024-05-09T13:23:08.238Z,3.70
2024-05-09T13:25:36.924Z,3.95
2024-05-09T13:28:05.182Z,4.03
2024-05-09T13:30:39.448Z,4.10
2024-05-09T13:33:11.255Z,3.75
2024-05-09T13:35:40.674Z,3.92
2024-05-09T13:38:08.471Z,3.85
2024-05-09T13:40:36.587Z,4.22
2024-05-09T13:43:05.203Z,3.80
2024-05-09T13:45:33.356Z,4.32
2024-05-09T13:48:02.919Z,4.25
2024-05-09T13:50:34.748Z,4.25
2024-05-09T13:53:05.749Z,3.67
2024-05-09T13:55:33.981Z,4.23
2024-05-09T13:58:01.621Z,4.30
2024-05-09T14:00:41.815Z,4.60
2024-05-09T14:03:14.995Z,4.25
2024-05-09T14:05:43.319Z,3.92
2024-05-09T14:08:10.771Z,4.18
2024-05-09T14:10:44.296Z,3.92
2024-05-09T14:13:12.407Z,4.40
2024-05-09T14:15:39.809Z,4.28
2024-05-09T14:18:11.444Z,3.90
2024-05-09T14:20:40.964Z,4.60
2024-05-09T14:23:08.172Z,4.75
2024-05-09T14:25:38.948Z,4.70
2024-05-09T14:28:09.438Z,4.63
2024-05-09T14:30:38.204Z,4.85
2024-05-09T14:33:07.704Z,4.72
2024-05-09T14:35:37.972Z,4.40
2024-05-09T14:38:06.807Z,4.43
2024-05-09T14:43:03.971Z,4.80
2024-05-09T14:45:32.266Z,4.78
2024-05-09T14:47:59.679Z,4.82
2024-05-09T14:50:34.724Z,4.93
2024-05-09T14:53:06.616Z,4.95
2024-05-09T14:55:36.537Z,4.22
2024-05-09T14:58:07.032Z,5.00
2024-05-09T15:00:39.431Z,4.63
2024-05-09T15:03:09.034Z,4.93
2024-05-09T15:05:36.222Z,5.40
2024-05-09T15:08:07.228Z,6.22
2024-05-09T15:10:36.524Z,4.88
2024-05-09T15:13:05.386Z,4.90
2024-05-09T15:15:33.554Z,5.40
2024-05-09T15:18:00.887Z,5.60
2024-05-09T15:20:34.458Z,5.55
2024-05-09T15:23:04.447Z,4.72
2024-05-09T15:25:33.521Z,5.72
2024-05-09T15:28:00.882Z,6.20
2024-05-09T15:30:31.401Z,4.68
2024-05-09T15:33:01.417Z,5.25
2024-05-09T15:35:29.187Z,5.57
2024-05-09T15:37:56.747Z,6.13
2024-05-09T15:40:35.088Z,6.18
2024-05-09T15:43:07.269Z,5.88
2024-05-09T15:45:35.156Z,6.18
2024-05-09T15:48:03.452Z,5.60
2024-05-09T15:50:37.267Z,6.30
2024-05-09T15:53:08.952Z,6.00
2024-05-09T15:55:36.974Z,6.28
2024-05-09T15:58:05.162Z,6.32
2024-05-09T16:00:38.467Z,6.20
2024-05-09T16:03:09.752Z,6.32
2024-05-09T16:05:38.143Z,6.43
2024-05-09T16:08:06.655Z,6.35
2024-05-09T16:10:35.078Z,7.05
2024-05-09T16:13:03.595Z,6.72
2024-05-09T16:15:31.968Z,7.15
2024-05-09T16:17:59.727Z,6.30
2024-05-09T16:20:35.070Z,6.97
2024-05-09T16:23:07.698Z,7.10
2024-05-09T16:25:35.007Z,7.00
2024-05-09T16:28:05.760Z,7.53
2024-05-09T16:30:36.241Z,6.93
2024-05-09T16:33:05.380Z,7.13
2024-05-09T16:35:34.884Z,6.95
2024-05-09T16:38:03.243Z,7.50
2024-05-09T16:40:37.427Z,7.00
2024-05-09T16:43:09.086Z,6.78
2024-05-09T16:45:37.803Z,6.78
2024-05-09T16:48:06.141Z,6.65
2024-05-09T16:50:35.107Z,7.05
2024-05-09T16:53:04.762Z,6.80
2024-05-09T16:55:32.533Z,6.78
2024-05-09T16:58:00.563Z,6.07
2024-05-09T17:00:38.228Z,6.75
2024-05-09T17:03:11.459Z,6.18
2024-05-09T17:05:39.585Z,6.55
2024-05-09T17:08:07.734Z,6.70
2024-05-09T17:10:36.502Z,6.18
2024-05-09T17:13:05.489Z,6.07
2024-05-09T17:15:34.075Z,6.20
2024-05-09T17:18:01.986Z,6.18
2024-05-09T17:20:34.112Z,6.55
2024-05-09T17:23:05.623Z,6.05
2024-05-09T17:25:33.691Z,6.22
2024-05-09T17:28:06.914Z,5.82
2024-05-09T17:30:37.703Z,6.20
2024-05-09T17:33:07.991Z,6.28
2024-05-09T17:35:36.658Z,6.47
2024-05-09T17:38:04.766Z,6.25
2024-05-09T17:40:35.771Z,5.90
2024-05-09T17:43:05.727Z,6.55
2024-05-09T17:45:33.772Z,6.55
2024-05-09T17:48:01.653Z,6.22
2024-05-09T17:50:35.265Z,6.30
2024-05-09T17:53:05.557Z,6.80
2024-05-09T17:55:32.966Z,6.80
2024-05-09T17:58:00.725Z,7.07
2024-05-09T18:00:37.051Z,6.95
2024-05-09T18:03:08.518Z,7.20
2024-05-09T18:05:37.861Z,6.85
2024-05-09T18:08:08.941Z,6.97
2024-05-09T18:10:38.945Z,7.57
2024-05-09T18:15:39.041Z,7.20
2024-05-09T18:18:08.136Z,7.03
2024-05-09T18:20:42.834Z,7.47
2024-05-09T18:23:14.207Z,7.30
2024-05-09T18:25:42.220Z,7.30
2024-05-09T18:28:09.438Z,6.85
2024-05-09T18:30:37.452Z,7.03
2024-05-09T18:33:07.242Z,7.22
2024-05-09T18:35:35.978Z,7.03
2024-05-09T18:38:03.792Z,6.72
2024-05-09T18:40:34.931Z,6.90
2024-05-09T18:43:07.019Z,7.47
2024-05-09T18:45:37.076Z,7.30
2024-05-09T18:48:05.852Z,7.45
2024-05-09T18:50:37.820Z,7.78
2024-05-09T18:53:07.478Z,7.63
2024-05-09T18:55:35.071Z,7.85
2024-05-09T18:58:02.508Z,8.52
2024-05-09T19:00:35.675Z,8.73
2024-05-09T19:03:10.274Z,8.43
2024-05-09T19:05:40.554Z,8.32
2024-05-09T19:08:08.679Z,9.05
2024-05-09T19:10:38.921Z,9.77
2024-05-09T19:13:10.925Z,9.87
2024-05-09T19:15:40.919Z,11.48
2024-05-09T19:18:08.606Z,20.20
2024-05-09T19:20:41.134Z,19.67
2024-05-09T19:23:08.319Z,25.38
2024-05-09T19:25:36.384Z,22.35
2024-05-09T19:28:04.630Z,20.75
2024-05-09T19:30:38.837Z,17.73
2024-05-09T19:33:09.958Z,15.18
2024-05-09T19:35:38.043Z,18.35
2024-05-09T19:38:05.595Z,14.00
2024-05-09T19:40:34.232Z,13.68
2024-05-09T19:45:43.866Z,12.27
2024-05-09T19:48:11.355Z,13.98
2024-05-09T19:50:43.127Z,14.63
2024-05-09T19:53:13.420Z,14.07
2024-05-09T19:55:41.527Z,16.23
2024-05-09T19:58:09.728Z,16.40
2024-05-09T20:00:40.773Z,17.80
2024-05-09T20:03:11.797Z,20.40
2024-05-09T20:05:39.746Z,19.85
2024-05-09T20:08:07.401Z,20.13
2024-05-09T20:10:37.722Z,21.13
2024-05-09T20:13:06.768Z,20.33
2024-05-09T20:15:37.627Z,20.70
2024-05-09T20:20:39.299Z,22.80
2024-05-09T20:23:10.180Z,20.33
2024-05-09T20:25:37.506Z,21.08
2024-05-09T20:28:06.128Z,21.75
2024-05-09T20:30:34.891Z,19.15
2024-05-09T20:33:05.210Z,19.80
2024-05-09T20:35:33.846Z,18.38
2024-05-09T20:38:02.345Z,20.27
2024-05-09T20:40:34.390Z,20.77
2024-05-09T20:43:05.262Z,20.25
2024-05-09T20:45:33.949Z,20.33
2024-05-09T20:48:01.590Z,21.95
2024-05-09T20:50:36.873Z,21.67
2024-05-09T20:53:12.721Z,24.48
2024-05-09T20:55:41.039Z,24.63
2024-05-09T20:58:08.983Z,22.75
2024-05-09T21:00:40.500Z,19.70
2024-05-09T21:03:12.609Z,17.77
2024-05-09T21:05:41.930Z,18.45
2024-05-09T21:08:09.288Z,16.73
2024-05-09T21:10:37.232Z,16.35
2024-05-09T21:13:05.712Z,16.30
2024-05-09T21:15:33.772Z,16.05
2024-05-09T21:18:01.036Z,15.85
2024-05-09T21:20:31.842Z,17.05
2024-05-09T21:23:01.307Z,16.90
2024-05-09T21:25:29.079Z,15.43
2024-05-09T21:27:56.175Z,15.50
2024-05-09T21:30:33.155Z,14.63
2024-05-09T21:33:09.261Z,14.90
2024-05-09T21:35:37.533Z,13.30
2024-05-09T21:38:07.246Z,14.43
2024-05-09T21:40:36.227Z,14.55
2024-05-09T21:43:05.336Z,14.48
2024-05-09T21:45:33.442Z,14.80
2024-05-09T21:48:00.848Z,15.25
2024-05-09T21:50:35.802Z,14.60
2024-05-09T21:53:07.431Z,14.90
2024-05-09T21:55:34.777Z,14.52
2024-05-09T21:58:02.593Z,14.85
2024-05-09T22:00:36.063Z,14.77
2024-05-09T22:03:09.711Z,15.75
2024-05-09T22:05:39.267Z,14.88
2024-05-09T22:08:06.974Z,14.88
2024-05-09T22:10:36.183Z,14.57
2024-05-09T22:13:05.793Z,14.65
2024-05-09T22:15:39.211Z,14.25
2024-05-09T22:18:08.506Z,14.07
2024-05-09T22:20:38.988Z,13.63
2024-05-09T22:23:07.782Z,14.10
2024-05-09T22:25:35.583Z,14.13
2024-05-09T22:28:03.353Z,13.95
2024-05-09T22:30:36.716Z,13.10
2024-05-09T22:33:08.744Z,13.35
2024-05-09T22:35:37.198Z,12.45
2024-05-09T22:38:04.519Z,12.27
2024-05-09T22:40:42.269Z,11.80
2024-05-09T22:43:18.410Z,13.02
2024-05-09T22:45:46.424Z,12.95
2024-05-09T22:48:13.750Z,13.45
2024-05-09T22:50:41.252Z,12.98
2024-05-09T22:53:08.328Z,13.25
2024-05-09T22:55:35.547Z,13.25
2024-05-09T22:58:02.590Z,12.50
2024-05-09T23:00:32.304Z,12.50
2024-05-09T23:03:01.772Z,12.98
2024-05-09T23:05:29.791Z,13.23
2024-05-09T23:07:57.230Z,12.98
2024-05-09T23:10:32.174Z,13.30
2024-05-09T23:13:06.203Z,13.13
2024-05-09T23:15:33.544Z,12.95
2024-05-09T23:18:00.796Z,13.40
2024-05-09T23:20:36.131Z,13.80
2024-05-09T23:23:11.358Z,14.50
2024-05-09T23:25:41.419Z,14.93
2024-05-09T23:28:08.920Z,15.85
2024-05-09T23:30:39.386Z,15.38
2024-05-09T23:33:12.672Z,14.70
2024-05-09T23:35:42.400Z,15.63
2024-05-09T23:38:09.629Z,15.95
2024-05-09T23:40:39.927Z,16.17
2024-05-09T23:43:10.021Z,16.08
2024-05-09T23:45:38.068Z,16.85
2024-05-09T23:48:05.827Z,16.98
2024-05-09T23:50:36.884Z,16.55
2024-05-09T23:53:08.090Z,16.35
2024-05-09T23:55:36.499Z,17.02
2024-05-09T23:58:03.779Z,17.75
